createdAt,value
2022-12-08T00:01:45.791Z,96150.22
2022-12-08T00:04:14.063Z,96150.22
2022-12-08T00:07:03.480Z,96142.41
2022-12-08T00:09:39.117Z,96137.38
2022-12-08T00:12:10.065Z,96139.41
2022-12-08T00:14:40.601Z,96141.75
2022-12-08T00:17:11.521Z,96138.53
2022-12-08T00:19:40.983Z,96134.84
2022-12-08T00:22:12.150Z,96139.06
2022-12-08T00:24:41.820Z,96136.47
2022-12-08T00:27:11.683Z,96131.00
2022-12-08T00:29:39.801Z,96135.72
2022-12-08T00:32:08.097Z,96131.16
2022-12-08T00:34:36.414Z,96128.56
2022-12-08T00:37:04.620Z,96120.75
2022-12-08T00:39:34.397Z,96118.97
2022-12-08T00:42:14.689Z,96118.34
2022-12-08T00:44:45.888Z,96121.94
2022-12-08T00:47:15.240Z,96117.97
2022-12-08T00:49:43.566Z,96116.72
2022-12-08T00:52:12.714Z,96117.34
2022-12-08T00:54:42.144Z,96112.69
2022-12-08T00:57:10.694Z,96110.78
2022-12-08T00:59:38.808Z,96106.66
2022-12-08T01:02:07.440Z,96104.13
2022-12-08T01:04:35.500Z,96104.84
2022-12-08T01:07:03.621Z,96107.44
2022-12-08T01:09:32.646Z,96105.47
2022-12-08T01:12:02.364Z,96094.44
2022-12-08T01:14:30.472Z,96107.91
2022-12-08T01:16:58.834Z,96111.28
2022-12-08T01:19:26.993Z,96110.03
2022-12-08T01:21:55.195Z,96119.19
2022-12-08T01:24:23.510Z,96112.28
2022-12-08T01:26:52.272Z,96116.22
2022-12-08T01:29:22.294Z,96118.00
2022-12-08T01:31:50.428Z,96118.84
2022-12-08T01:34:18.568Z,96117.06
2022-12-08T01:36:47.949Z,96112.88
2022-12-08T01:39:19.804Z,96114.78
2022-12-08T01:41:48.886Z,96110.75
2022-12-08T01:44:58.195Z,96110.47
2022-12-08T01:47:34.195Z,96101.41
2022-12-08T01:50:03.810Z,96099.06
2022-12-08T01:52:38.393Z,96095.56
2022-12-08T01:55:12.025Z,96096.50
2022-12-08T01:57:46.472Z,96099.53
2022-12-08T02:00:20.304Z,96098.78
2022-12-08T02:02:58.162Z,96099.78
2022-12-08T02:05:29.875Z,96093.41
2022-12-08T02:07:59.590Z,96088.94
2022-12-08T02:10:31.638Z,96083.63
2022-12-08T02:13:01.464Z,96083.25
2022-12-08T02:15:38.192Z,96083.09
2022-12-08T02:18:26.304Z,96084.53
2022-12-08T02:21:02.892Z,96072.75
2022-12-08T02:23:42.323Z,96068.03
2022-12-08T02:26:56.283Z,96069.47
2022-12-08T02:30:03.457Z,96066.22
2022-12-08T02:33:12.519Z,96056.72
2022-12-08T02:35:50.655Z,96048.84
2022-12-08T02:38:31.216Z,96047.50
2022-12-08T02:41:17.663Z,96050.53
2022-12-08T02:43:49.473Z,96044.31
2022-12-08T02:46:22.981Z,96042.56
2022-12-08T02:48:53.237Z,96040.44
2022-12-08T02:51:22.795Z,96045.91
2022-12-08T02:53:51.321Z,96044.81
2022-12-08T02:56:38.861Z,96044.19
2022-12-08T02:59:28.857Z,96046.50
2022-12-08T03:02:35.480Z,96039.13
2022-12-08T03:05:14.199Z,96039.25
2022-12-08T03:07:54.061Z,96040.31
2022-12-08T03:10:30.848Z,96041.31
2022-12-08T03:13:05.253Z,96047.16
2022-12-08T03:15:33.789Z,96040.97
2022-12-08T03:18:01.885Z,96039.63
2022-12-08T03:20:33.870Z,96021.50
2022-12-08T03:23:09.362Z,96023.53
2022-12-08T03:25:44.641Z,96017.81
2022-12-08T03:28:13.715Z,96016.66
2022-12-08T03:30:45.304Z,96009.03
2022-12-08T03:33:20.958Z,96007.59
2022-12-08T03:35:49.250Z,96004.22
2022-12-08T03:38:19.280Z,96004.56
2022-12-08T03:41:08.855Z,96000.53
2022-12-08T03:43:37.055Z,95997.28
2022-12-08T03:46:05.283Z,95998.72
2022-12-08T03:48:33.363Z,95996.41
2022-12-08T03:51:01.440Z,95989.91
2022-12-08T03:53:30.844Z,95998.28
2022-12-08T03:55:58.960Z,95994.50
2022-12-08T03:58:27.082Z,96001.66
2022-12-08T04:00:55.255Z,95992.91
2022-12-08T04:03:23.314Z,95983.28
2022-12-08T04:05:51.554Z,95984.94
2022-12-08T04:08:19.683Z,95988.22
2022-12-08T04:10:49.393Z,95990.22
2022-12-08T04:13:17.649Z,95993.84
2022-12-08T04:15:49.480Z,95992.16
2022-12-08T04:18:17.754Z,95985.97
2022-12-08T04:20:46.903Z,95982.59
2022-12-08T04:23:15.157Z,95979.06
2022-12-08T04:25:43.736Z,95977.91
2022-12-08T04:28:13.533Z,95980.06
2022-12-08T04:30:41.706Z,95987.03
2022-12-08T04:33:09.849Z,95984.50
2022-12-08T04:35:38.246Z,95982.91
2022-12-08T04:38:06.324Z,95981.91
2022-12-08T04:40:34.592Z,95971.09
2022-12-08T04:43:02.609Z,95978.41
2022-12-08T04:45:32.221Z,95977.41
2022-12-08T04:48:01.437Z,95973.84
2022-12-08T04:50:29.745Z,95975.25
2022-12-08T04:52:57.850Z,95979.47
2022-12-08T04:55:25.880Z,95969.97
2022-12-08T04:57:53.954Z,95969.91
2022-12-08T05:00:22.129Z,95965.59
2022-12-08T05:02:51.571Z,95970.69
2022-12-08T05:05:19.793Z,95964.06
2022-12-08T05:07:47.890Z,95958.03
2022-12-08T05:10:15.988Z,95960.47
2022-12-08T05:12:44.059Z,95962.78
2022-12-08T05:15:12.246Z,95958.69
2022-12-08T05:17:40.317Z,95954.75
2022-12-08T05:20:11.942Z,95950.09
2022-12-08T05:22:40.073Z,95958.00
2022-12-08T05:25:09.142Z,95950.81
2022-12-08T05:27:38.102Z,95954.03
2022-12-08T05:30:08.096Z,95953.31
2022-12-08T05:32:36.214Z,95955.50
2022-12-08T05:35:04.349Z,95950.81
2022-12-08T05:37:33.766Z,95955.44
2022-12-08T05:40:02.158Z,95957.75
2022-12-08T05:42:30.477Z,95958.41
2022-12-08T05:44:58.534Z,95965.03
2022-12-08T05:47:28.150Z,95953.75
2022-12-08T05:49:58.737Z,95956.09
2022-12-08T05:52:27.440Z,95955.25
2022-12-08T05:54:56.832Z,95958.94
2022-12-08T05:57:25.035Z,95948.59
2022-12-08T05:59:53.101Z,95945.19
2022-12-08T06:02:21.300Z,95946.09
2022-12-08T06:04:49.433Z,95947.09
2022-12-08T06:07:41.500Z,95951.56
2022-12-08T06:10:12.186Z,95953.28
2022-12-08T06:12:40.299Z,95949.25
2022-12-08T06:15:13.124Z,95941.25
2022-12-08T06:17:41.356Z,95947.50
2022-12-08T06:20:14.152Z,95944.22
2022-12-08T06:22:42.261Z,95941.34
2022-12-08T06:25:11.940Z,95938.78
2022-12-08T06:27:40.161Z,95945.03
2022-12-08T06:30:09.740Z,95939.81
2022-12-08T06:32:38.043Z,95942.34
2022-12-08T06:35:07.253Z,95940.31
2022-12-08T06:37:35.718Z,95947.44
2022-12-08T06:40:04.788Z,95942.72
2022-12-08T06:42:47.677Z,95938.50
2022-12-08T06:45:18.321Z,95944.75
2022-12-08T06:47:51.933Z,95946.19
2022-12-08T06:50:20.367Z,95945.50
2022-12-08T06:52:58.464Z,95942.44
2022-12-08T06:58:20.595Z,95949.06
2022-12-08T07:00:48.741Z,95946.38
2022-12-08T07:03:16.999Z,95951.84
2022-12-08T07:05:45.038Z,95959.00
2022-12-08T07:08:13.906Z,95965.06
2022-12-08T07:10:42.621Z,95962.81
2022-12-08T07:13:10.728Z,95959.47
2022-12-08T07:15:40.151Z,95948.69
2022-12-08T07:18:08.200Z,95954.16
2022-12-08T07:20:39.773Z,95953.00
2022-12-08T07:23:07.948Z,95960.63
2022-12-08T07:25:36.026Z,95963.50
2022-12-08T07:28:11.049Z,95956.56
2022-12-08T07:30:41.096Z,95951.69
2022-12-08T07:33:09.246Z,95954.28
2022-12-08T07:35:37.240Z,95962.81
2022-12-08T07:38:05.342Z,95959.34
2022-12-08T07:40:33.369Z,95959.09
2022-12-08T07:43:01.453Z,95960.38
2022-12-08T07:45:31.619Z,95959.03
2022-12-08T07:48:01.371Z,95955.25
2022-12-08T07:50:29.444Z,95960.06
2022-12-08T07:52:57.702Z,95959.63
2022-12-08T07:55:26.227Z,95958.03
2022-12-08T07:57:54.283Z,95955.50
2022-12-08T08:00:23.413Z,95947.44
2022-12-08T08:02:51.500Z,95945.44
2022-12-08T08:05:20.983Z,95944.41
2022-12-08T08:07:49.136Z,95943.47
2022-12-08T08:10:17.281Z,95934.41
2022-12-08T08:12:45.451Z,95945.84
2022-12-08T08:15:14.157Z,95935.94
2022-12-08T08:17:42.254Z,95930.47
2022-12-08T08:20:12.246Z,95929.75
2022-12-08T08:22:41.709Z,95925.06
2022-12-08T08:25:10.450Z,95933.59
2022-12-08T08:27:38.509Z,95928.13
2022-12-08T08:30:09.336Z,95929.38
2022-12-08T08:32:38.214Z,95930.75
2022-12-08T08:35:07.364Z,95936.84
2022-12-08T08:37:35.711Z,95934.88
2022-12-08T08:40:06.614Z,95940.25
2022-12-08T08:42:34.848Z,95943.63
2022-12-08T08:45:02.924Z,95931.69
2022-12-08T08:47:31.024Z,95928.81
2022-12-08T08:49:59.079Z,95933.72
2022-12-08T08:52:27.153Z,95935.97
2022-12-08T08:54:55.232Z,95930.91
2022-12-08T08:57:26.038Z,95934.16
2022-12-08T08:59:54.980Z,95926.22
2022-12-08T09:02:23.661Z,95929.00
2022-12-08T09:04:52.259Z,95927.28
2022-12-08T09:07:20.420Z,95919.66
2022-12-08T09:09:48.482Z,95920.09
2022-12-08T09:12:16.567Z,95915.47
2022-12-08T09:14:46.379Z,95922.50
2022-12-08T09:17:14.869Z,95919.19
2022-12-08T09:19:43.362Z,95917.44
2022-12-08T09:22:11.439Z,95904.44
2022-12-08T09:24:39.664Z,95903.69
2022-12-08T09:27:07.927Z,95903.13
2022-12-08T09:29:36.565Z,95901.50
2022-12-08T09:32:06.756Z,95900.31
2022-12-08T09:34:34.854Z,95909.38
2022-12-08T09:37:02.937Z,95915.91
2022-12-08T09:39:31.024Z,95911.13
2022-12-08T09:42:02.952Z,95901.56
2022-12-08T09:44:50.558Z,95904.22
2022-12-08T09:47:32.129Z,95901.63
2022-12-08T09:50:08.509Z,95898.44
2022-12-08T09:52:42.391Z,95895.44
2022-12-08T09:55:21.336Z,95898.66
2022-12-08T09:58:01.182Z,95899.28
2022-12-08T10:00:29.477Z,95898.53
2022-12-08T10:03:00.095Z,95896.13
2022-12-08T10:05:31.277Z,95890.94
2022-12-08T10:08:09.256Z,95886.53
2022-12-08T10:10:56.884Z,95890.16
2022-12-08T10:13:35.444Z,95880.31
2022-12-08T10:16:28.044Z,95884.31
2022-12-08T10:19:12.297Z,95879.72
2022-12-08T10:21:41.658Z,95877.50
2022-12-08T10:24:19.617Z,95878.91
2022-12-08T10:26:48.660Z,95875.66
2022-12-08T10:29:16.821Z,95868.44
2022-12-08T10:31:45.041Z,95865.81
2022-12-08T10:34:20.709Z,95870.25
2022-12-08T10:36:52.587Z,95871.25
2022-12-08T10:39:39.115Z,95867.41
2022-12-08T10:42:21.379Z,95865.38
2022-12-08T10:45:01.847Z,95864.38
2022-12-08T10:47:35.842Z,95851.53
2022-12-08T10:50:21.924Z,95847.72
2022-12-08T10:52:57.803Z,95851.13
2022-12-08T10:55:26.392Z,95847.91
2022-12-08T10:57:54.454Z,95845.91
2022-12-08T11:00:26.002Z,95846.53
2022-12-08T11:03:01.027Z,95841.28
2022-12-08T11:05:35.044Z,95832.44
2022-12-08T11:08:05.901Z,95835.06
2022-12-08T11:10:37.492Z,95831.44
2022-12-08T11:13:14.123Z,95822.19
2022-12-08T11:15:42.313Z,95813.97
2022-12-08T11:18:23.372Z,95820.59
2022-12-08T11:21:08.139Z,95809.72
2022-12-08T11:23:38.426Z,95810.75
2022-12-08T11:26:16.554Z,95811.56
2022-12-08T11:28:44.788Z,95807.75
2022-12-08T11:31:28.583Z,95806.16
2022-12-08T11:33:57.854Z,95802.31
2022-12-08T11:36:31.106Z,95797.09
2022-12-08T11:39:03.175Z,95794.88
2022-12-08T11:41:36.937Z,95792.28
2022-12-08T11:44:16.412Z,95796.91
2022-12-08T11:46:52.434Z,95792.50
2022-12-08T11:49:21.491Z,95789.66
2022-12-08T11:52:00.587Z,95791.88
2022-12-08T11:54:33.801Z,95790.47
2022-12-08T11:57:05.683Z,95786.06
2022-12-08T11:59:38.275Z,95784.44
2022-12-08T12:02:07.447Z,95789.28
2022-12-08T12:04:42.791Z,95772.78
2022-12-08T12:07:41.568Z,95784.06
2022-12-08T12:10:53.752Z,95785.47
2022-12-08T12:13:41.456Z,95780.66
2022-12-08T12:16:43.323Z,95768.81
2022-12-08T12:19:15.738Z,95768.78
2022-12-08T12:21:47.935Z,95760.75
2022-12-08T12:24:26.022Z,95767.59
2022-12-08T12:27:03.492Z,95768.00
2022-12-08T12:29:38.867Z,95767.78
2022-12-08T12:32:11.268Z,95756.94
2022-12-08T12:34:49.617Z,95759.53
2022-12-08T12:37:22.428Z,95757.94
2022-12-08T12:40:00.153Z,95746.72
2022-12-08T12:42:42.985Z,95747.88
2022-12-08T12:45:32.978Z,95746.09
2022-12-08T12:48:27.220Z,95738.47
2022-12-08T12:50:56.890Z,95746.28
2022-12-08T12:53:52.060Z,95729.41
2022-12-08T12:57:15.836Z,95731.44
2022-12-08T12:59:55.666Z,95734.84
2022-12-08T13:02:27.225Z,95740.06
2022-12-08T13:05:01.902Z,95734.03
2022-12-08T13:07:34.210Z,95731.44
2022-12-08T13:10:12.067Z,95729.81
2022-12-08T13:12:41.851Z,95726.81
2022-12-08T13:15:19.567Z,95736.06
2022-12-08T13:17:50.100Z,95729.63
2022-12-08T13:20:24.608Z,95732.44
2022-12-08T13:23:44.205Z,95734.66
2022-12-08T13:26:22.468Z,95729.19
2022-12-08T13:29:21.124Z,95730.03
2022-12-08T13:31:52.239Z,95731.81
2022-12-08T13:34:29.294Z,95734.22
2022-12-08T13:37:14.837Z,95734.41
2022-12-08T13:39:50.714Z,95725.38
2022-12-08T13:42:25.916Z,95723.19
2022-12-08T13:53:00.034Z,95722.97
2022-12-08T13:59:33.887Z,95715.97
2022-12-08T14:02:17.852Z,95715.34
2022-12-08T14:05:16.783Z,95714.97
2022-12-08T14:07:35.727Z,95720.56
2022-12-08T14:10:08.367Z,95720.78
2022-12-08T14:12:38.418Z,95718.34
2022-12-08T14:15:09.231Z,95718.16
2022-12-08T14:17:40.943Z,95729.22
2022-12-08T14:20:23.485Z,95723.56
2022-12-08T14:22:53.625Z,95724.78
2022-12-08T14:25:23.324Z,95717.56
2022-12-08T14:27:57.543Z,95721.16
2022-12-08T14:30:30.468Z,95716.56
2022-12-08T14:33:03.399Z,95719.19
2022-12-08T14:35:33.306Z,95726.81
2022-12-08T14:38:03.914Z,95722.19
2022-12-08T14:40:35.980Z,95726.59
2022-12-08T14:43:16.798Z,95727.81
2022-12-08T14:45:53.140Z,95723.56
2022-12-08T14:48:26.273Z,95713.75
2022-12-08T14:51:28.657Z,95713.34
2022-12-08T14:53:59.518Z,95723.19
2022-12-08T14:56:33.998Z,95713.31
2022-12-08T14:59:12.490Z,95717.75
2022-12-08T15:01:41.807Z,95715.34
2022-12-08T15:04:24.081Z,95717.34
2022-12-08T15:06:57.041Z,95713.34
2022-12-08T15:09:36.624Z,95707.31
2022-12-08T15:12:07.501Z,95709.34
2022-12-08T15:14:37.708Z,95709.34
2022-12-08T15:17:32.445Z,95705.50
2022-12-08T15:20:04.386Z,95704.31
2022-12-08T15:22:33.357Z,95706.53
2022-12-08T15:25:02.278Z,95707.13
2022-12-08T15:27:30.337Z,95709.34
2022-12-08T15:29:58.362Z,95710.75
2022-12-08T15:32:26.434Z,95707.13
2022-12-08T15:34:54.563Z,95702.91
2022-12-08T15:37:26.459Z,95708.13
2022-12-08T15:39:54.652Z,95703.91
2022-12-08T15:42:22.792Z,95707.31
2022-12-08T15:44:52.141Z,95704.69
2022-12-08T15:47:22.867Z,95709.53
2022-12-08T15:49:52.838Z,95708.31
2022-12-08T15:52:24.570Z,95710.53
2022-12-08T15:54:52.703Z,95696.09
2022-12-08T16:00:51.728Z,95698.47
2022-12-08T16:07:04.642Z,95694.06
2022-12-08T16:09:21.453Z,95690.84
2022-12-08T16:12:09.367Z,95693.69
2022-12-08T16:17:27.722Z,95686.63
2022-12-08T16:19:56.326Z,95691.28
2022-12-08T16:22:54.173Z,95685.22
2022-12-08T16:25:19.824Z,95689.25
2022-12-08T16:28:17.453Z,95681.81
2022-12-08T16:30:38.778Z,95675.59
2022-12-08T16:33:07.099Z,95673.59
2022-12-08T16:35:35.207Z,95678.59
2022-12-08T16:38:03.264Z,95684.44
2022-12-08T16:40:32.863Z,95678.22
2022-12-08T16:42:59.962Z,95664.97
2022-12-08T16:45:30.053Z,95668.97
2022-12-08T16:48:00.584Z,95667.97
2022-12-08T16:50:31.264Z,95667.38
2022-12-08T16:53:01.699Z,95672.59
2022-12-08T16:55:30.185Z,95672.78
2022-12-08T16:58:00.357Z,95678.81
2022-12-08T17:00:31.577Z,95683.22
2022-12-08T17:02:59.692Z,95684.22
2022-12-08T17:05:27.896Z,95679.22
2022-12-08T17:07:57.469Z,95680.03
2022-12-08T17:10:29.497Z,95673.41
2022-12-08T17:12:59.433Z,95664.16
2022-12-08T17:15:27.568Z,95662.34
2022-12-08T17:17:55.961Z,95669.16
2022-12-08T17:20:26.513Z,95671.78
2022-12-08T17:22:55.588Z,95662.75
2022-12-08T17:25:23.755Z,95665.78
2022-12-08T17:27:52.193Z,95668.78
2022-12-08T17:30:21.939Z,95670.75
2022-12-08T17:32:50.088Z,95665.94
2022-12-08T17:35:18.262Z,95678.41
2022-12-08T17:37:46.302Z,95680.19
2022-12-08T17:40:14.615Z,95681.59
2022-12-08T17:42:43.190Z,95675.97
2022-12-08T17:45:12.709Z,95675.78
2022-12-08T17:47:42.166Z,95663.75
2022-12-08T17:50:11.629Z,95669.56
2022-12-08T17:52:39.693Z,95665.16
2022-12-08T17:55:08.969Z,95671.78
2022-12-08T17:57:37.046Z,95679.19
2022-12-08T18:00:07.635Z,95680.19
2022-12-08T18:02:41.309Z,95692.63
2022-12-08T18:05:10.022Z,95688.00
2022-12-08T18:07:38.169Z,95689.22
2022-12-08T18:10:08.109Z,95676.16
2022-12-08T18:12:36.394Z,95677.38
2022-12-08T18:15:09.365Z,95679.97
2022-12-08T18:17:37.541Z,95681.97
2022-12-08T18:20:09.300Z,95672.75
2022-12-08T18:22:37.427Z,95676.78
2022-12-08T18:25:06.779Z,95670.56
2022-12-08T18:27:39.904Z,95675.78
2022-12-08T18:30:16.922Z,95672.16
2022-12-08T18:32:45.164Z,95670.50
2022-12-08T18:35:14.737Z,95662.28
2022-12-08T18:37:43.964Z,95656.06
2022-12-08T18:40:14.081Z,95667.50
2022-12-08T18:42:42.209Z,95663.50
2022-12-08T18:45:11.659Z,95660.50
2022-12-08T18:47:41.603Z,95656.06
2022-12-08T18:50:12.581Z,95663.91
2022-12-08T18:52:42.214Z,95663.09
2022-12-08T18:55:11.206Z,95657.44
2022-12-08T18:57:42.687Z,95657.84
2022-12-08T19:00:14.671Z,95657.06
2022-12-08T19:02:43.720Z,95661.84
2022-12-08T19:05:14.327Z,95652.03
2022-12-08T19:07:45.524Z,95656.44
2022-12-08T19:10:14.166Z,95653.81
2022-12-08T19:12:42.620Z,95659.41
2022-12-08T19:15:12.132Z,95654.81
2022-12-08T19:17:40.163Z,95653.16
2022-12-08T19:20:09.978Z,95653.97
2022-12-08T19:22:38.302Z,95653.78
2022-12-08T19:25:08.938Z,95655.94
2022-12-08T19:27:37.027Z,95649.50
2022-12-08T19:30:07.426Z,95646.31
2022-12-08T19:32:35.699Z,95641.31
2022-12-08T19:35:07.183Z,95643.72
2022-12-08T19:37:35.744Z,95634.50
2022-12-08T19:40:22.556Z,95636.59
2022-12-08T19:43:09.519Z,95634.38
2022-12-08T19:45:38.142Z,95633.34
2022-12-08T19:48:06.756Z,95626.75
2022-12-08T19:50:37.868Z,95618.53
2022-12-08T19:53:08.123Z,95619.94
2022-12-08T19:55:36.357Z,95627.38
2022-12-08T19:58:09.527Z,95628.78
2022-12-08T20:00:40.006Z,95628.75
2022-12-08T20:03:08.748Z,95623.53
2022-12-08T20:05:38.206Z,95630.31
2022-12-08T20:08:07.306Z,95626.28
2022-12-08T20:10:38.362Z,95627.25
2022-12-08T20:13:26.507Z,95627.25
2022-12-08T20:15:54.656Z,95629.06
2022-12-08T20:18:22.926Z,95626.22
2022-12-08T20:20:51.475Z,95632.41
2022-12-08T20:23:19.628Z,95619.59
2022-12-08T20:25:47.967Z,95624.97
2022-12-08T20:28:18.911Z,95628.19
2022-12-08T20:30:49.032Z,95628.56
2022-12-08T20:33:19.105Z,95634.78
2022-12-08T20:35:47.963Z,95625.44
2022-12-08T20:38:16.157Z,95628.44
2022-12-08T20:40:46.280Z,95628.81
2022-12-08T20:43:14.426Z,95626.72
2022-12-08T20:45:43.864Z,95629.75
2022-12-08T20:48:12.195Z,95628.50
2022-12-08T20:50:40.399Z,95634.91
2022-12-08T20:53:08.703Z,95637.25
2022-12-08T20:55:36.837Z,95628.66
2022-12-08T20:58:05.244Z,95633.47
2022-12-08T21:00:33.322Z,95626.84
2022-12-08T21:03:03.003Z,95626.25
2022-12-08T21:05:31.513Z,95627.81
2022-12-08T21:07:59.906Z,95629.78
2022-12-08T21:10:28.294Z,95625.94
2022-12-08T21:12:56.640Z,95630.56
2022-12-08T21:15:24.682Z,95617.75
2022-12-08T21:17:54.801Z,95618.75
2022-12-08T21:20:24.816Z,95618.16
2022-12-08T21:22:53.029Z,95617.91
2022-12-08T21:25:21.324Z,95620.34
2022-12-08T21:27:49.554Z,95618.56
2022-12-08T21:30:17.897Z,95616.72
2022-12-08T21:32:46.075Z,95617.91
2022-12-08T21:35:14.326Z,95625.69
2022-12-08T21:37:43.846Z,95625.25
2022-12-08T21:40:13.891Z,95623.03
2022-12-08T21:42:45.039Z,95619.22
2022-12-08T21:45:16.280Z,95620.00
2022-12-08T21:47:45.271Z,95622.22
2022-12-08T21:50:14.682Z,95629.97
2022-12-08T21:52:46.887Z,95624.97
2022-12-08T21:55:19.034Z,95619.91
2022-12-08T21:57:47.469Z,95616.19
2022-12-08T22:00:19.235Z,95616.19
2022-12-08T22:02:47.761Z,95617.81
2022-12-08T22:05:16.119Z,95620.41
2022-12-08T22:07:45.739Z,95623.75
2022-12-08T22:10:14.111Z,95623.94
2022-12-08T22:12:42.502Z,95626.34
2022-12-08T22:15:12.463Z,95624.41
2022-12-08T22:17:42.925Z,95623.44
2022-12-08T22:20:15.457Z,95621.44
2022-12-08T22:22:45.998Z,95629.34
2022-12-08T22:25:14.571Z,95623.25
2022-12-08T22:27:43.120Z,95623.34
2022-12-08T22:30:12.781Z,95628.66
2022-12-08T22:32:42.007Z,95617.78
2022-12-08T22:35:11.371Z,95615.94
2022-12-08T22:37:39.828Z,95617.94
2022-12-08T22:40:12.122Z,95613.06
2022-12-08T22:42:40.800Z,95614.78
2022-12-08T22:45:10.611Z,95610.13
2022-12-08T22:47:38.877Z,95610.72
2022-12-08T22:50:14.659Z,95615.41
2022-12-08T22:52:43.086Z,95608.56
2022-12-08T22:55:12.791Z,95608.97
2022-12-08T22:57:40.835Z,95605.78
2022-12-08T23:00:12.191Z,95595.50
2022-12-08T23:02:41.209Z,95601.59
2022-12-08T23:05:10.660Z,95600.31
2022-12-08T23:07:40.291Z,95596.63
2022-12-08T23:10:12.317Z,95593.88
2022-12-08T23:12:40.473Z,95589.84
2022-12-08T23:15:10.063Z,95583.78
2022-12-08T23:17:38.481Z,95586.97
2022-12-08T23:20:09.717Z,95578.53
2022-12-08T23:22:38.316Z,95579.91
2022-12-08T23:25:07.759Z,95578.28
2022-12-08T23:27:37.825Z,95570.69
2022-12-08T23:30:08.340Z,95568.63
2022-12-08T23:32:36.737Z,95569.63
2022-12-08T23:35:06.008Z,95557.63
2022-12-08T23:37:34.316Z,95563.19
2022-12-08T23:40:02.497Z,95562.59
2022-12-08T23:42:31.022Z,95558.75
2022-12-08T23:45:00.433Z,95561.34
2022-12-08T23:47:28.571Z,95546.84
2022-12-08T23:49:56.896Z,95543.09
2022-12-08T23:52:25.018Z,95546.84
2022-12-08T23:54:54.607Z,95542.47
2022-12-08T23:57:23.418Z,95538.88
2022-12-08T23:59:51.516Z,95535.75
